Hauptseite
METAR-TAF:

METAR-TAF

Flughäfen :

Flughafen München

München, Deutschland

Breite: 48-21N, Länge: 011-47E, Höhe: 453 m

Beobachtung

Neuester Wetterbericht von vor 7 Minuten, um 09:20 UTC
Wind 4 kt aus unterschiedlichen Richtungen
Temperatur 4°C
Luftfeuchtigkeit 75%
Luftdruck 1020 hPa
Sichtweite 10 km oder mehr
Durchbrochene Bewölkung in der Höhe von 1700 ft
Durchbrochene Bewölkung in der Höhe von 4000 ft

METAR: EDDM 170920Z VRB04KT 9999 BKN017 BKN040 04/00 Q1020 NOSIG

Zeit: 11:27 (09:27 UTC)

Prognose

Neuester Wetterbericht von vor 4 Stunden und 27 Minuten, um 05:00 UTC
Gültige Prognose vom 17 um 06 UTC bis 18 um 12 UTC
Wind 4 kt aus Nordwest
Sichtweite 10 km oder mehr
Durchbrochene Bewölkung in der Höhe von 3000 ft

TAF: EDDM 170500Z 1706/1812 31004KT 9999 BKN030

Wetterbeobachtungen und Prognosen von mehr als 4000 Flughäfen (METAR und TAF Bericht).

Die verfügbaren Stationen werden durch gelbe und rote Markierungen auf der Karte dargestellt.

Führen Sie die Maus auf sie, um den Namen der Station zu sehen.

Darauf klicken, um die Beobachtung von Wetterbeobachtungen und Prognosen zu sehen.

Um die Karte zu ändern : klicken Sie auf den grünen Tasten mit einem schwarzen Kreuz Zum Vergrößern, auf den grünen Button mit einem Gedankenstrich zu verkleinern, oder auf die grünen Pfeile für benachbarte Karten.


METAR-TAF: